Nearby METAR Reports

 

MWCR - Owen Roberts, Grand Cayman
Distance from station: NNE 3mi, 4km
Updated: 23/06/2017 15:00
Few Clouds
Few Clouds
 Wind from E
Wind: E 15 mph , 24 km/h
Temperature: 88°F , 31°C
Heat Index: 103°F , 39°C
Dew Point: 79°F , 26°C
Humidity: 75%
Barometer: 1012 hPa
Clouds: Few Clouds
Visibility: 6 miles , 10 km
Cloud details: Few Clouds 2400 ft
2017/06/23 20:00 MWCR 232000Z 08013KT 9999 FEW024 31/26 Q1012
MWCB - Gerrard Smith, Cayman Brac
Distance from station: ENE 102mi, 164km
Updated: 23/06/2017 15:00
Partly cloudy
Partly cloudy
 Wind from ESE
Wind: ESE 13 mph , 20 km/h
Temperature: 88°F , 31°C
Heat Index: 100°F , 38°C
Dew Point: 77°F , 25°C
Humidity: 70%
Barometer: 1013 hPa
Clouds: Partly cloudy
Visibility: 6 miles , 10 km
Cloud details: Partly cloudy 1800 ft
2017/06/23 20:00 MWCB 232000Z 11011KT 9999 SCT018CB 31/25 Q1013
 
MUCL - Cayo Largo D Sur, Cuba
Distance from station: N 164mi, 264km
Updated: 23/06/2017 14:51
Partly cloudy
Partly cloudy
 Wind from ESE
Wind: ESE 16 mph , 26 km/h
Temperature: 86°F , 30°C
Heat Index: 93°F , 34°C
Dew Point: 73°F , 23°C
Humidity: 66%
Barometer: 1014 hPa
Clouds: Partly cloudy
Visibility: 6 miles , 9 km
Cloud details: Partly cloudy 2000 ft
Partly cloudy 9000 ft
2017/06/23 19:51 MUCL 231951Z 11014KT 9000 SCT020 SCT090 30/23 Q1014
MUCF - Cienfuegos(Civ/M, Cuba
Distance from station: NNE 208mi, 335km
Updated: 23/06/2017 14:52
Mostly cloudy
Mostly cloudy
 Wind from S
Wind: S 6 mph , 9 km/h
Temperature: 86°F , 30°C
Heat Index: 99°F , 37°C
Dew Point: 79°F , 26°C
Humidity: 79%
Barometer: 1014 hPa
Clouds: Mostly cloudy
Visibility: 6 miles , 9 km
Cloud details: Partly cloudy 2000 ft
Mostly cloudy 18000 ft
2017/06/23 19:52 MUCF 231952Z 19005KT 9000 SCT020 BKN180 30/26 Q1014
 
MKJS - Sangster/Montego Bay, Jamaica
Distance from station: ESE 233mi, 375km
Updated: 23/06/2017 15:00
Few Clouds
Few Clouds
 Wind from E
Wind: E 23 mph , 37 km/h
Temperature: 88°F , 31°C
Heat Index: 100°F , 38°C
Dew Point: 77°F , 25°C
Humidity: 70%
Barometer: 1012 hPa
Clouds: Few Clouds
Visibility: 6 miles , 10 km
Cloud details: Partly cloudy 2000 ft
Few Clouds 2200 ft
2017/06/23 20:00 MKJS 232000Z 08020KT 9999 SCT020 FEW022CB 31/25 Q1012
MUSC - Santa Clara, Cuba
Distance from station: NNE 242mi, 389km
Updated: 23/06/2017 14:50
Mostly cloudy
Mostly cloudy
 Wind from S
Wind: S 6 mph , 9 km/h
Temperature: 84°F , 29°C
Heat Index: 89°F , 32°C
Dew Point: 72°F , 22°C
Humidity: 66%
Barometer: 1015 hPa
Clouds: Mostly cloudy
Visibility: 6 miles , 9 km
Cloud details: Mostly cloudy 2000 ft
2017/06/23 19:50 MUSC 231950Z 17005KT 140V210 9000 BKN020 29/22 Q1015
 
MUVR - Varadero, Cuba
Distance from station: N 260mi, 419km
Updated: 23/06/2017 14:51
Partly cloudy
Partly cloudy
 Wind from ENE
Wind: ENE 14 mph , 22 km/h
Temperature: 88°F , 31°C
Heat Index: 96°F , 36°C
Dew Point: 73°F , 23°C
Humidity: 62%
Barometer: 1015 hPa
Clouds: Partly cloudy
Visibility: 6 miles , 10 km
Cloud details: Partly cloudy 1800 ft
2017/06/23 19:51 MUVR 231951Z 06012KT 9999 SCT018 31/23 Q1015
MUHA - Havana/Jose Mar, Cuba
Distance from station: NNW 264mi, 425km
Updated: 23/06/2017 14:55
Partly cloudy
Partly cloudy
 Wind from S
Wind: S 7 mph , 11 km/h
Temperature: 86°F , 30°C
Heat Index: 93°F , 34°C
Dew Point: 73°F , 23°C
Humidity: 66%
Barometer: 1014 hPa
Clouds: Partly cloudy
Visibility: 6 miles , 9 km
Cloud details: Few Clouds 2000 ft
Partly cloudy 2500 ft
2017/06/23 19:55 MUHA 231955Z 18006KT 9000 FEW020TCU SCT025 30/23 Q1014
 
MUCM - Camaguey/Iganci, Cuba
Distance from station: NE 273mi, 439km
Updated: 23/06/2017 14:50
Partly cloudy
Partly cloudy
 Wind from E
Wind: E 16 mph , 26 km/h
Temperature: 88°F , 31°C
Heat Index: 92°F , 33°C
Dew Point: 68°F , 20°C
Humidity: 52%
Barometer: 1015 hPa
Clouds: Partly cloudy
Visibility: 6 miles , 9 km
Cloud details: Partly cloudy 2000 ft
2017/06/23 19:50 MUCM 231950Z 09014KT 060V120 9000 SCT020 31/20 Q1015
MUMZ - Manzanillo, Cuba
Distance from station: ENE 287mi, 462km
Updated: 11/10/2016 09:50
NOT Current
Partly cloudy
Partly cloudy
 Wind from ENE
Wind: ENE 12 mph , 19 km/h
Temperature: 84°F , 29°C
Heat Index: 89°F , 32°C
Dew Point: 72°F , 22°C
Humidity: 66%
Barometer: 1014 hPa
Clouds: Partly cloudy
Visibility: 6 miles , 9 km
Cloud details: Partly cloudy 2000 ft
2016/10/11 14:50 MUMZ 111450Z 07010KT 9000 SCT020 29/22 Q1014
 
MUCC - Canagua, Cuba
Distance from station: NE 296mi, 476km
Updated: 23/06/2017 14:51
Partly cloudy
Partly cloudy
 Wind from E
Wind: E 17 mph , 28 km/h
Temperature: 88°F , 31°C
Heat Index: 96°F , 36°C
Dew Point: 73°F , 23°C
Humidity: 62%
Barometer: 1015 hPa
Clouds: Partly cloudy
Visibility: 6 miles , 9 km
Cloud details: Partly cloudy 2000 ft
2017/06/23 19:51 MUCC 231951Z 09015KT 9000 SCT020 31/23 Q1015
MKJP - Kingston/Norman Manley, Jamaica
Distance from station: ESE 315mi, 507km
Updated: 23/06/2017 15:00
Partly cloudy
Partly cloudy
 Wind from SE
Wind: SE 21 mph , 33 km/h
Temperature: 88°F , 31°C
Heat Index: 98°F , 37°C
Dew Point: 75°F , 24°C
Humidity: 66%
Barometer: 1012 hPa
Clouds: Partly cloudy
Visibility: 6 miles , 10 km
Cloud details: Few Clouds 2000 ft
Partly cloudy 3000 ft
2017/06/23 20:00 MKJP 232000Z 14018KT 9999 FEW020 SCT030 31/24 Q1012
 
MHPL - Puerto Lempira, Honduras
Distance from station: SSW 318mi, 513km
Updated: 23/06/2017 15:00
Mostly cloudy
Mostly cloudy
 Wind from E
Wind: E 6 mph , 9 km/h
Temperature: 91°F , 33°C
Heat Index: 107°F , 42°C
Dew Point: 79°F , 26°C
Humidity: 67%
Barometer: 1009 hPa
Clouds: Mostly cloudy
Visibility: 6 miles , 10 km
Cloud details: Mostly cloudy 3000 ft
2017/06/23 20:00 MHPL 232000Z 08005KT 9999 BKN030TCU 33/26 Q1009 TCU ALL HZ
MUHG - Holguin (civ/Mil, Cuba
Distance from station: ENE 345mi, 555km
Updated: 23/06/2017 14:50
Mostly cloudy
Mostly cloudy
 Wind from E
Wind: E 13 mph , 20 km/h
Temperature: 90°F , 32°C
Heat Index: 97°F , 36°C
Dew Point: 72°F , 22°C
Humidity: 55%
Barometer: 1013 hPa
Clouds: Mostly cloudy
Visibility: 6 miles , 9 km
Cloud details: Mostly cloudy 2500 ft
2017/06/23 19:50 MUHG 231950Z 09011KT 9000 BKN025TCU 32/22 Q1013